9°C Temp
'.PHP_EOL;
6°C Dewpoint
82% Humidity
Temperature
5 KM/H
3 MPH
3 KTS
200°
South South
West

Wind
Partly Cloudy
Pressure 1017.62 (hPa)- 30.05 (in)
Visibility 40 (mi) - 64.4 (km)

Current Conditions
CYYC
Location 14(km)
Metar:
CYYC 171200Z 20003KT 40SM FEW085 FEW220 09/06 A3005 RMK AC1CI1 AC TR CI TR SLP182
Mon 17th June 06:00 am

Airport
  Metar Aviation API Data Provided by https://www.checkwx.com/ Icons created by weather34.com